Engel's, Russia
Current Conditions -  °F | °C
As of 3:00 PM on Sunday 23 Nov 2014 (Local Time) from UWSS Reporting Station
Clear Clear  
Wind Chill: 24°   Ceiling: Unl
Heat Index: 32°   Visibility: 6mi
Dew Point: 21°   Wind: 9mph
Humidity: 64%   Direction: 350°N
Pressure: 30.24"   Gusts: 16mph
Location:  51.3°N, 46.12°E
Report Text: UWSS 231200Z 35004G07MPS CAVOK M00/M06 Q1024 300///60 NOSIG RMKQFE754
Loading
Personal Weather Stations






























Interactive Weather Map New forecast layout! Learn more

10-Day Weather Forecast

Advertisements
Track Severe Weather on mobile